Time;durP1;ratioP1;P1;durP2;ratioP2;P2;SDS_P1;SDS_P2;PMS_P1;PMS_P2;Temp;Humidity;BMP_temperature;BMP_pressure;BME280_temperature;BME280_humidity;BME280_pressure;Samples;Min_cycle;Max_cycle;Signal;HPM_P1;HPM_P2
2023/03/07 00:02:41;;;;;;;1.6;0.6;;;;;;;;;;;;;-73
2023/03/07 00:04:00;;;;;;;;;;;;;;;3.56;91.49121;99887.95;;;;-73
2023/03/07 00:09:03;;;;;;;;;;;;;;;3.55;91.55469;99881.67;;;;-72
2023/03/07 00:13:59;;;;;;;;;;;;;;;3.53;91.7998;99876.77;;;;-71
2023/03/07 00:18:59;;;;;;;;;;;;;;;3.5;91.46875;99872.4;;;;-72
2023/03/07 00:24:00;;;;;;;;;;;;;;;3.47;91.39648;99863.44;;;;-71
2023/03/07 00:28:59;;;;;;;;;;;;;;;3.45;91.8584;99867.52;;;;-71
2023/03/07 00:32:42;;;;;;;2.9;0.5;;;;;;;;;;;;;-71
2023/03/07 00:33:59;;;;;;;;;;;;;;;3.42;91.60352;99859.62;;;;-72
2023/03/07 00:38:59;;;;;;;;;;;;;;;3.4;91.28516;99867.39;;;;-72
2023/03/07 00:43:59;;;;;;;;;;;;;;;3.36;90.93945;99864.61;;;;-72
2023/03/07 00:48:59;;;;;;;;;;;;;;;3.31;90.99219;99859.84;;;;-72
2023/03/07 00:54:00;;;;;;;;;;;;;;;3.25;91.25195;99858.15;;;;-72
2023/03/07 00:59:00;;;;;;;;;;;;;;;3.2;91.25098;99852.84;;;;-67
2023/03/07 01:02:41;;;;;;;4.5;0.6;;;;;;;;;;;;;-68
2023/03/07 01:04:01;;;;;;;;;;;;;;;3.17;91.22363;99854.83;;;;-69
2023/03/07 01:09:01;;;;;;;;;;;;;;;3.14;91.31543;99848.32;;;;-68
2023/03/07 01:14:03;;;;;;;;;;;;;;;3.1;90.9375;99840.68;;;;-69
2023/03/07 01:19:00;;;;;;;;;;;;;;;3.06;90.77832;99832.93;;;;-68
2023/03/07 01:24:02;;;;;;;;;;;;;;;3.04;90.93652;99833;;;;-68
2023/03/07 01:29:00;;;;;;;;;;;;;;;3.01;90.6582;99834.35;;;;-67
2023/03/07 01:32:41;;;;;;;2.7;0.5;;;;;;;;;;;;;-68
2023/03/07 01:33:59;;;;;;;;;;;;;;;2.97;90.84766;99832.04;;;;-67
2023/03/07 01:39:01;;;;;;;;;;;;;;;2.97;91.11621;99835.16;;;;-68
2023/03/07 01:44:00;;;;;;;;;;;;;;;2.95;90.47363;99834.67;;;;-68
2023/03/07 01:49:00;;;;;;;;;;;;;;;2.95;90.52539;99832;;;;-71
2023/03/07 01:54:00;;;;;;;;;;;;;;;2.93;90.48926;99826.75;;;;-72
2023/03/07 01:59:09;;;;;;;;;;;;;;;2.94;90.94824;99821.2;;;;-72
2023/03/07 02:02:45;;;;;;;3.7;0.4;;;;;;;;;;;;;-72
2023/03/07 02:04:02;;;;;;;;;;;;;;;2.94;90.61035;99818.05;;;;-71
2023/03/07 02:08:59;;;;;;;;;;;;;;;2.93;90.39355;99813.75;;;;-71
2023/03/07 02:13:59;;;;;;;;;;;;;;;2.93;91.44434;99816;;;;-72
2023/03/07 02:18:59;;;;;;;;;;;;;;;2.94;90.67773;99825.86;;;;-72
2023/03/07 02:24:02;;;;;;;;;;;;;;;2.94;90.70996;99812.72;;;;-72
2023/03/07 02:29:11;;;;;;;;;;;;;;;2.93;90.6748;99808.01;;;;-72
2023/03/07 02:32:40;;;;;;;3.9;0.5;;;;;;;;;;;;;-72
2023/03/07 02:34:00;;;;;;;;;;;;;;;2.94;90.97852;99797.52;;;;-72
2023/03/07 02:39:00;;;;;;;;;;;;;;;2.93;91.30176;99789.09;;;;-71
2023/03/07 02:43:59;;;;;;;;;;;;;;;2.94;91.1084;99792.63;;;;-72
2023/03/07 02:48:59;;;;;;;;;;;;;;;2.93;91.30371;99787.96;;;;-72
2023/03/07 02:54:01;;;;;;;;;;;;;;;2.92;91.01855;99792.23;;;;-72
2023/03/07 02:58:59;;;;;;;;;;;;;;;2.89;90.45117;99782.58;;;;-71
2023/03/07 03:02:43;;;;;;;1.7;0.4;;;;;;;;;;;;;-70
2023/03/07 03:04:02;;;;;;;;;;;;;;;2.89;90.50488;99773.3;;;;-72
2023/03/07 03:08:59;;;;;;;;;;;;;;;2.87;90.70313;99774.39;;;;-72
2023/03/07 03:14:02;;;;;;;;;;;;;;;2.84;90.41797;99776.21;;;;-72
2023/03/07 03:19:00;;;;;;;;;;;;;;;2.83;90.23145;99777.08;;;;-71
2023/03/07 03:23:59;;;;;;;;;;;;;;;2.81;90.25879;99777.86;;;;-73
2023/03/07 03:29:01;;;;;;;;;;;;;;;2.82;90.2627;99790.39;;;;-71
2023/03/07 03:32:40;;;;;;;2.9;0.4;;;;;;;;;;;;;-71
2023/03/07 03:33:59;;;;;;;;;;;;;;;2.8;90.66797;99786.61;;;;-71
2023/03/07 03:39:00;;;;;;;;;;;;;;;2.77;91.11719;99795.26;;;;-71
2023/03/07 03:43:59;;;;;;;;;;;;;;;2.77;90.97656;99787.38;;;;-72
2023/03/07 03:48:59;;;;;;;;;;;;;;;2.73;91.03418;99772.86;;;;-71
2023/03/07 03:54:00;;;;;;;;;;;;;;;2.72;90.9668;99778.82;;;;-71
2023/03/07 03:59:00;;;;;;;;;;;;;;;2.71;91.38574;99774.5;;;;-71
2023/03/07 04:02:40;;;;;;;3.3;0.4;;;;;;;;;;;;;-71
2023/03/07 04:03:59;;;;;;;;;;;;;;;2.73;90.9043;99771.07;;;;-71
2023/03/07 04:09:01;;;;;;;;;;;;;;;2.74;90.67676;99761.38;;;;-71
2023/03/07 04:13:59;;;;;;;;;;;;;;;2.71;90.68164;99760;;;;-71
2023/03/07 04:19:00;;;;;;;;;;;;;;;2.72;90.79199;99760.2;;;;-71
2023/03/07 04:23:59;;;;;;;;;;;;;;;2.7;90.2793;99751.8;;;;-71
2023/03/07 04:28:59;;;;;;;;;;;;;;;2.69;90.15625;99744.9;;;;-71
2023/03/07 04:32:42;;;;;;;4.7;0.4;;;;;;;;;;;;;-70
2023/03/07 04:33:59;;;;;;;;;;;;;;;2.69;90.14746;99740.92;;;;-70
2023/03/07 04:38:59;;;;;;;;;;;;;;;2.67;90.0332;99731.34;;;;-71
2023/03/07 04:43:59;;;;;;;;;;;;;;;2.67;90.25391;99738.66;;;;-71
2023/03/07 04:48:59;;;;;;;;;;;;;;;2.68;90.30762;99740.88;;;;-71
2023/03/07 04:53:59;;;;;;;;;;;;;;;2.69;90.28809;99742.81;;;;-71
2023/03/07 04:59:00;;;;;;;;;;;;;;;2.68;90.67578;99756.75;;;;-71
2023/03/07 05:02:39;;;;;;;5.1;0.5;;;;;;;;;;;;;-71
2023/03/07 05:04:01;;;;;;;;;;;;;;;2.65;90.89746;99758.75;;;;-72
2023/03/07 05:08:59;;;;;;;;;;;;;;;2.62;90.37207;99754.28;;;;-72
2023/03/07 05:13:59;;;;;;;;;;;;;;;2.58;90.33008;99750.27;;;;-71
2023/03/07 05:18:59;;;;;;;;;;;;;;;2.56;90.71582;99752.47;;;;-71
2023/03/07 05:24:00;;;;;;;;;;;;;;;2.53;90.40723;99748.78;;;;-71
2023/03/07 05:28:59;;;;;;;;;;;;;;;2.51;90.34766;99749.89;;;;-71
2023/03/07 05:32:39;;;;;;;0.6;0.3;;;;;;;;;;;;;-71
2023/03/07 05:33:59;;;;;;;;;;;;;;;2.48;90.2998;99758.41;;;;-71
2023/03/07 05:39:03;;;;;;;;;;;;;;;2.47;90.33789;99762.88;;;;-71
2023/03/07 05:44:00;;;;;;;;;;;;;;;2.47;90.20996;99762.59;;;;-72
2023/03/07 05:48:59;;;;;;;;;;;;;;;2.44;90.50684;99755.22;;;;-71
2023/03/07 05:53:59;;;;;;;;;;;;;;;2.43;90.51563;99760.67;;;;-71
2023/03/07 05:58:59;;;;;;;;;;;;;;;2.42;90.44727;99757.25;;;;-72
2023/03/07 06:02:40;;;;;;;1.2;0.4;;;;;;;;;;;;;-70
2023/03/07 06:03:59;;;;;;;;;;;;;;;2.42;90.25391;99758.27;;;;-71
2023/03/07 06:09:00;;;;;;;;;;;;;;;2.4;90.30469;99764.37;;;;-71
2023/03/07 06:13:59;;;;;;;;;;;;;;;2.38;90.1582;99765.56;;;;-72
2023/03/07 06:18:59;;;;;;;;;;;;;;;2.35;90.33594;99769.16;;;;-72
2023/03/07 06:23:59;;;;;;;;;;;;;;;2.33;90.39746;99767.83;;;;-72
2023/03/07 06:28:59;;;;;;;;;;;;;;;2.32;90.42578;99762.63;;;;-72
2023/03/07 06:32:41;;;;;;;2.4;0.3;;;;;;;;;;;;;-72
2023/03/07 06:33:59;;;;;;;;;;;;;;;2.32;90.39355;99759.37;;;;-72
2023/03/07 06:38:59;;;;;;;;;;;;;;;2.31;90.78125;99755.77;;;;-71
2023/03/07 06:43:59;;;;;;;;;;;;;;;2.3;90.61719;99763.2;;;;-71
2023/03/07 06:49:02;;;;;;;;;;;;;;;2.31;90.32617;99759.68;;;;-71
2023/03/07 06:54:00;;;;;;;;;;;;;;;2.29;90.57129;99755.17;;;;-72
2023/03/07 06:58:59;;;;;;;;;;;;;;;2.31;90.53223;99761.75;;;;-71
2023/03/07 07:02:38;;;;;;;1.4;0.3;;;;;;;;;;;;;-71
2023/03/07 07:03:59;;;;;;;;;;;;;;;2.31;90.26367;99765.48;;;;-71
2023/03/07 07:09:01;;;;;;;;;;;;;;;2.31;90.14453;99774.11;;;;-71
2023/03/07 07:13:59;;;;;;;;;;;;;;;2.33;90.05078;99778.77;;;;-72
2023/03/07 07:19:02;;;;;;;;;;;;;;;2.36;89.69922;99776.05;;;;-72
2023/03/07 07:24:01;;;;;;;;;;;;;;;2.37;90.00488;99768.02;;;;-71
2023/03/07 07:28:59;;;;;;;;;;;;;;;2.39;90.10742;99785.59;;;;-71
2023/03/07 07:32:38;;;;;;;3.2;0.4;;;;;;;;;;;;;-72
2023/03/07 07:33:59;;;;;;;;;;;;;;;2.4;90.09863;99763.29;;;;-72
2023/03/07 07:39:01;;;;;;;;;;;;;;;2.41;90.00293;99765.95;;;;-72
2023/03/07 07:43:59;;;;;;;;;;;;;;;2.42;89.83203;99765.05;;;;-72
2023/03/07 07:48:59;;;;;;;;;;;;;;;2.45;89.90234;99767.18;;;;-71
2023/03/07 07:53:59;;;;;;;;;;;;;;;2.47;90.04688;99761.94;;;;-72
2023/03/07 07:58:59;;;;;;;;;;;;;;;2.49;90.2998;99766.57;;;;-72
2023/03/07 08:02:38;;;;;;;1.6;0.5;;;;;;;;;;;;;-72
2023/03/07 08:03:59;;;;;;;;;;;;;;;2.53;90.375;99768.92;;;;-72
2023/03/07 08:08:59;;;;;;;;;;;;;;;2.58;90.41602;99764.22;;;;-72
2023/03/07 08:13:59;;;;;;;;;;;;;;;2.65;90.77637;99769.89;;;;-70
2023/03/07 08:19:00;;;;;;;;;;;;;;;2.71;90.69238;99770.91;;;;-72
2023/03/07 08:23:59;;;;;;;;;;;;;;;2.76;90.5957;99776.47;;;;-71
2023/03/07 08:29:00;;;;;;;;;;;;;;;2.82;90.43359;99779.75;;;;-72
2023/03/07 08:32:37;;;;;;;2.7;0.6;;;;;;;;;;;;;-71
2023/03/07 08:34:02;;;;;;;;;;;;;;;2.86;90.57324;99789.08;;;;-71
2023/03/07 08:38:59;;;;;;;;;;;;;;;2.87;90.74707;99798.02;;;;-71
2023/03/07 08:43:59;;;;;;;;;;;;;;;2.87;90.80273;99796.85;;;;-72
2023/03/07 08:49:01;;;;;;;;;;;;;;;2.88;90.79395;99790.13;;;;-73
2023/03/07 08:54:00;;;;;;;;;;;;;;;2.9;91.02539;99780.83;;;;-72
2023/03/07 08:58:59;;;;;;;;;;;;;;;2.93;91.55273;99784.86;;;;-72
2023/03/07 09:02:37;;;;;;;1.9;0.4;;;;;;;;;;;;;-72
2023/03/07 09:03:59;;;;;;;;;;;;;;;3.01;91.08105;99781.84;;;;-72
2023/03/07 09:08:59;;;;;;;;;;;;;;;3.08;91.70313;99781.77;;;;-72
2023/03/07 09:13:59;;;;;;;;;;;;;;;3.16;91.58887;99776.17;;;;-73
2023/03/07 09:18:59;;;;;;;;;;;;;;;3.26;91.33887;99785.28;;;;-72
2023/03/07 09:23:59;;;;;;;;;;;;;;;3.33;90.59668;99783.27;;;;-72
2023/03/07 09:29:03;;;;;;;;;;;;;;;3.4;90.80762;99791.69;;;;-71
2023/03/07 09:32:38;;;;;;;3.8;0.5;;;;;;;;;;;;;-72
2023/03/07 09:33:59;;;;;;;;;;;;;;;3.42;90.64648;99800.05;;;;-72
2023/03/07 09:38:59;;;;;;;;;;;;;;;3.42;90.75488;99805.93;;;;-72
2023/03/07 09:44:04;;;;;;;;;;;;;;;3.38;90.88867;99805.09;;;;-72
2023/03/07 09:49:07;;;;;;;;;;;;;;;3.41;90.80762;99806.99;;;;-72
2023/03/07 09:54:01;;;;;;;;;;;;;;;3.45;90.62207;99797.69;;;;-72
2023/03/07 09:59:03;;;;;;;;;;;;;;;3.48;90.69238;99803.21;;;;-72
2023/03/07 10:02:41;;;;;;;2.1;0.4;;;;;;;;;;;;;-72
2023/03/07 10:04:01;;;;;;;;;;;;;;;3.53;90.19434;99798.38;;;;-72
2023/03/07 10:09:03;;;;;;;;;;;;;;;3.59;90.51172;99801.05;;;;-72
2023/03/07 10:14:06;;;;;;;;;;;;;;;3.66;90.85059;99814.72;;;;-72
2023/03/07 10:19:10;;;;;;;;;;;;;;;3.65;90.11035;99819.08;;;;-74
2023/03/07 10:24:16;;;;;;;;;;;;;;;3.61;90.14453;99816.44;;;;-72
2023/03/07 10:29:00;;;;;;;;;;;;;;;3.57;90.59473;99822.23;;;;-72
2023/03/07 10:32:43;;;;;;;2.7;0.5;;;;;;;;;;;;;-73
2023/03/07 10:34:00;;;;;;;;;;;;;;;3.56;90.54688;99829.04;;;;-71
2023/03/07 10:39:09;;;;;;;;;;;;;;;3.54;90.55371;99836.03;;;;-72
2023/03/07 10:43:59;;;;;;;;;;;;;;;3.54;90.73633;99830.87;;;;-72
2023/03/07 10:49:05;;;;;;;;;;;;;;;3.59;89.94531;99838.31;;;;-73
2023/03/07 10:53:59;;;;;;;;;;;;;;;3.67;89.98535;99836.21;;;;-71
2023/03/07 10:59:13;;;;;;;;;;;;;;;3.72;90.28711;99828.53;;;;-72
2023/03/07 11:02:39;;;;;;;1.9;0.5;;;;;;;;;;;;;-71
2023/03/07 11:04:01;;;;;;;;;;;;;;;3.76;90.58887;99826.59;;;;-71
2023/03/07 11:08:59;;;;;;;;;;;;;;;3.8;90.56445;99823.84;;;;-72
2023/03/07 11:14:10;;;;;;;;;;;;;;;3.84;90.67188;99826.31;;;;-72
2023/03/07 11:19:02;;;;;;;;;;;;;;;3.89;90.58398;99819.25;;;;-71
2023/03/07 11:24:05;;;;;;;;;;;;;;;3.97;90.42676;99820.52;;;;-71
2023/03/07 11:29:08;;;;;;;;;;;;;;;4.04;90.25586;99814.33;;;;-72
2023/03/07 11:32:41;;;;;;;3.1;0.5;;;;;;;;;;;;;-71
2023/03/07 11:34:05;;;;;;;;;;;;;;;4.11;90.03125;99809.66;;;;-72
2023/03/07 11:39:08;;;;;;;;;;;;;;;4.19;90.01563;99810.62;;;;-73
2023/03/07 11:44:03;;;;;;;;;;;;;;;4.27;89.44629;99817.44;;;;-71
2023/03/07 11:49:06;;;;;;;;;;;;;;;4.35;89.4082;99816.87;;;;-72
2023/03/07 11:54:04;;;;;;;;;;;;;;;4.45;88.89648;99816.94;;;;-72
2023/03/07 11:59:13;;;;;;;;;;;;;;;4.52;88.84375;99795.59;;;;-71
2023/03/07 12:02:46;;;;;;;4.1;0.8;;;;;;;;;;;;;-72
2023/03/07 12:04:10;;;;;;;;;;;;;;;4.64;88.67383;99800.35;;;;-72
2023/03/07 12:09:19;;;;;;;;;;;;;;;4.75;88.29395;99789.2;;;;-72
2023/03/07 12:14:05;;;;;;;;;;;;;;;4.87;88.08691;99797.7;;;;-71
2023/03/07 12:19:14;;;;;;;;;;;;;;;4.9;87.66992;99796.02;;;;-71
2023/03/07 12:24:04;;;;;;;;;;;;;;;4.92;87.52344;99796.11;;;;-70
2023/03/07 12:29:01;;;;;;;;;;;;;;;4.89;87.42871;99800.47;;;;-72
2023/03/07 12:32:39;;;;;;;5.1;1.2;;;;;;;;;;;;;-72
2023/03/07 12:34:04;;;;;;;;;;;;;;;4.82;87.4043;99803.09;;;;-71
2023/03/07 12:39:01;;;;;;;;;;;;;;;4.74;87.36621;99805.38;;;;-72
2023/03/07 12:44:01;;;;;;;;;;;;;;;4.7;87.45508;99807.8;;;;-71
2023/03/07 12:49:02;;;;;;;;;;;;;;;4.63;87.50586;99819.53;;;;-71
2023/03/07 12:54:02;;;;;;;;;;;;;;;4.63;87.73438;99823.19;;;;-70
2023/03/07 12:59:03;;;;;;;;;;;;;;;4.67;88.03613;99819.89;;;;-71
2023/03/07 13:02:40;;;;;;;5.6;0.9;;;;;;;;;;;;;-72
2023/03/07 13:04:01;;;;;;;;;;;;;;;4.67;88.05957;99814.53;;;;-71
2023/03/07 13:09:02;;;;;;;;;;;;;;;4.66;88.0791;99820.09;;;;-70
2023/03/07 13:14:08;;;;;;;;;;;;;;;4.63;87.96289;99841.11;;;;-72
2023/03/07 13:19:09;;;;;;;;;;;;;;;4.57;87.7666;99834.74;;;;-71
2023/03/07 13:24:10;;;;;;;;;;;;;;;4.58;87.85547;99835.28;;;;-70
2023/03/07 13:29:02;;;;;;;;;;;;;;;4.67;87.73242;99827.68;;;;-72
2023/03/07 13:32:48;;;;;;;3.3;0.8;;;;;;;;;;;;;-71
2023/03/07 13:33:59;;;;;;;;;;;;;;;4.76;87.59668;99845.42;;;;-71
2023/03/07 13:39:03;;;;;;;;;;;;;;;4.73;87.38477;99842.75;;;;-72
2023/03/07 13:44:04;;;;;;;;;;;;;;;4.64;87.22461;99834.97;;;;-71
2023/03/07 13:49:06;;;;;;;;;;;;;;;4.58;87.22266;99849.85;;;;-71
2023/03/07 13:54:06;;;;;;;;;;;;;;;4.54;87.26074;99848.64;;;;-70
2023/03/07 13:59:07;;;;;;;;;;;;;;;4.51;87.62305;99846.39;;;;-70
2023/03/07 14:02:43;;;;;;;3.1;0.7;;;;;;;;;;;;;-71
2023/03/07 14:04:00;;;;;;;;;;;;;;;4.49;87.72852;99849.93;;;;-71
2023/03/07 14:09:03;;;;;;;;;;;;;;;4.46;87.99316;99856.46;;;;-71
2023/03/07 14:14:14;;;;;;;;;;;;;;;4.41;88.5498;99860.7;;;;-72
2023/03/07 14:19:05;;;;;;;;;;;;;;;4.4;88.25391;99862.91;;;;-71
2023/03/07 14:24:16;;;;;;;;;;;;;;;4.42;88.28125;99859.66;;;;-71
2023/03/07 14:29:05;;;;;;;;;;;;;;;4.42;88.14844;99860.93;;;;-71
2023/03/07 14:32:37;;;;;;;5.2;0.8;;;;;;;;;;;;;-73
2023/03/07 14:34:04;;;;;;;;;;;;;;;4.44;88.27246;99856.15;;;;-70
2023/03/07 14:39:03;;;;;;;;;;;;;;;4.5;88.42676;99868.63;;;;-71
2023/03/07 14:44:04;;;;;;;;;;;;;;;4.55;88.1875;99863.49;;;;-71
2023/03/07 14:49:07;;;;;;;;;;;;;;;4.58;87.94238;99867.48;;;;-71
2023/03/07 14:54:00;;;;;;;;;;;;;;;4.56;87.25293;99871.28;;;;-72
2023/03/07 14:59:01;;;;;;;;;;;;;;;4.55;86.85742;99875.22;;;;-71
2023/03/07 15:02:37;;;;;;;3.3;0.8;;;;;;;;;;;;;-70
2023/03/07 15:03:59;;;;;;;;;;;;;;;4.55;87.08789;99870.19;;;;-71
2023/03/07 15:09:01;;;;;;;;;;;;;;;4.51;86.28613;99870.68;;;;-71
2023/03/07 15:14:01;;;;;;;;;;;;;;;4.5;86.04297;99872.06;;;;-72
2023/03/07 15:19:01;;;;;;;;;;;;;;;4.49;86.2041;99893.47;;;;-71
2023/03/07 15:24:01;;;;;;;;;;;;;;;4.44;86.31445;99911.92;;;;-71
2023/03/07 15:29:08;;;;;;;;;;;;;;;4.31;86.82129;99918.39;;;;-72
2023/03/07 15:32:41;;;;;;;1.9;0.5;;;;;;;;;;;;;-71
2023/03/07 15:34:09;;;;;;;;;;;;;;;4.13;87.09961;99932.05;;;;-71
2023/03/07 15:39:12;;;;;;;;;;;;;;;3.99;87.44141;99923.49;;;;-74
2023/03/07 15:44:18;;;;;;;;;;;;;;;3.89;88.13867;99924.44;;;;-72
2023/03/07 15:48:59;;;;;;;;;;;;;;;3.78;88.01855;99919.09;;;;-72
2023/03/07 15:54:02;;;;;;;;;;;;;;;3.71;88.20117;99931.11;;;;-71
2023/03/07 15:59:02;;;;;;;;;;;;;;;3.64;87.84961;99924.23;;;;-72
2023/03/07 16:02:45;;;;;;;2.3;0.4;;;;;;;;;;;;;-72
2023/03/07 16:04:03;;;;;;;;;;;;;;;3.51;88.01758;99941.2;;;;-72
2023/03/07 16:08:59;;;;;;;;;;;;;;;3.38;88.21973;99958.91;;;;-72
2023/03/07 16:13:59;;;;;;;;;;;;;;;3.24;88.25684;99958.19;;;;-71
2023/03/07 16:19:00;;;;;;;;;;;;;;;3.12;88.20898;99946.81;;;;-73
2023/03/07 16:23:59;;;;;;;;;;;;;;;3.09;88.68066;99948.59;;;;-73
2023/03/07 16:28:59;;;;;;;;;;;;;;;3.04;88.24609;99953.33;;;;-72
2023/03/07 16:32:38;;;;;;;2.5;0.4;;;;;;;;;;;;;-71
2023/03/07 16:34:02;;;;;;;;;;;;;;;2.98;88.44141;99956.88;;;;-72
2023/03/07 16:38:59;;;;;;;;;;;;;;;2.94;88.6377;99974.08;;;;-73
2023/03/07 16:44:01;;;;;;;;;;;;;;;2.87;88.50586;99975.03;;;;-71
2023/03/07 16:48:59;;;;;;;;;;;;;;;2.82;88.62598;99969.03;;;;-72
2023/03/07 16:53:59;;;;;;;;;;;;;;;2.85;88.75098;99970.5;;;;-73
2023/03/07 16:58:59;;;;;;;;;;;;;;;2.82;88.51563;99953.28;;;;-73
2023/03/07 17:02:38;;;;;;;1.6;0.5;;;;;;;;;;;;;-72
2023/03/07 17:03:59;;;;;;;;;;;;;;;2.79;88.53223;99959.42;;;;-73
2023/03/07 17:08:59;;;;;;;;;;;;;;;2.64;88.74023;99966.7;;;;-72
2023/03/07 17:14:04;;;;;;;;;;;;;;;2.5;88.92871;99976;;;;-70
2023/03/07 17:18:59;;;;;;;;;;;;;;;2.36;88.84473;99977.53;;;;-72
2023/03/07 17:24:00;;;;;;;;;;;;;;;2.2;88.85547;99988.98;;;;-72
2023/03/07 17:29:00;;;;;;;;;;;;;;;2.11;89.26758;99995.39;;;;-72
2023/03/07 17:32:38;;;;;;;1.6;0.5;;;;;;;;;;;;;-72
2023/03/07 17:33:59;;;;;;;;;;;;;;;2.01;89.2168;99997.34;;;;-72
2023/03/07 17:38:59;;;;;;;;;;;;;;;1.91;89.26074;99998.65;;;;-73
2023/03/07 17:43:59;;;;;;;;;;;;;;;1.83;89.1875;99997.58;;;;-73
2023/03/07 17:48:59;;;;;;;;;;;;;;;1.75;89.3125;100010.3;;;;-72
2023/03/07 17:53:59;;;;;;;;;;;;;;;1.7;89.9082;100023.4;;;;-70
2023/03/07 17:59:01;;;;;;;;;;;;;;;1.6;89.5293;100033.3;;;;-72
2023/03/07 18:02:37;;;;;;;2.5;0.6;;;;;;;;;;;;;-72
2023/03/07 18:03:59;;;;;;;;;;;;;;;1.55;90.15527;100036.5;;;;-72
2023/03/07 18:08:59;;;;;;;;;;;;;;;1.48;89.7334;100040;;;;-73
2023/03/07 18:14:02;;;;;;;;;;;;;;;1.47;90.0752;100045.2;;;;-71
2023/03/07 18:18:59;;;;;;;;;;;;;;;1.39;89.7666;100046.1;;;;-71
2023/03/07 18:24:00;;;;;;;;;;;;;;;1.39;89.79883;100046.1;;;;-72
2023/03/07 18:28:59;;;;;;;;;;;;;;;1.32;90.00098;100040.9;;;;-72
2023/03/07 18:32:38;;;;;;;1.8;0.6;;;;;;;;;;;;;-71
2023/03/07 18:33:59;;;;;;;;;;;;;;;1.32;89.71875;100040.2;;;;-73
2023/03/07 18:38:59;;;;;;;;;;;;;;;1.25;89.88867;100034.4;;;;-72
2023/03/07 18:44:00;;;;;;;;;;;;;;;1.21;89.87012;100038.1;;;;-71
2023/03/07 18:48:59;;;;;;;;;;;;;;;1.13;89.66797;100045.1;;;;-72
2023/03/07 18:54:00;;;;;;;;;;;;;;;1.13;90.14453;100063.7;;;;-71
2023/03/07 18:59:00;;;;;;;;;;;;;;;1.16;89.81543;100086.1;;;;-71
2023/03/07 19:02:37;;;;;;;1.1;0.6;;;;;;;;;;;;;-71
2023/03/07 19:04:02;;;;;;;;;;;;;;;1.15;89.69727;100084;;;;-71
2023/03/07 19:09:01;;;;;;;;;;;;;;;1.23;89.99316;100077;;;;-72
2023/03/07 19:13:59;;;;;;;;;;;;;;;1.2;89.92285;100074.6;;;;-72
2023/03/07 19:18:59;;;;;;;;;;;;;;;1.12;89.48438;100073;;;;-71
2023/03/07 19:24:02;;;;;;;;;;;;;;;1.05;89.63281;100077.6;;;;-71
2023/03/07 19:28:59;;;;;;;;;;;;;;;0.97;89.66797;100083.2;;;;-71
2023/03/07 19:32:36;;;;;;;2.1;0.7;;;;;;;;;;;;;-71
2023/03/07 19:33:59;;;;;;;;;;;;;;;0.89;89.56445;100089.1;;;;-70
2023/03/07 19:39:00;;;;;;;;;;;;;;;0.88;90.36035;100096.4;;;;-71
2023/03/07 19:44:02;;;;;;;;;;;;;;;0.86;89.94727;100095.2;;;;-72
2023/03/07 19:48:59;;;;;;;;;;;;;;;0.87;89.99219;100096.7;;;;-71
2023/03/07 19:54:01;;;;;;;;;;;;;;;0.84;89.96484;100095.9;;;;-71
2023/03/07 19:58:59;;;;;;;;;;;;;;;0.76;89.80957;100098.8;;;;-71
2023/03/07 20:02:36;;;;;;;1.2;0.6;;;;;;;;;;;;;-72
2023/03/07 20:04:00;;;;;;;;;;;;;;;0.76;89.80762;100097.3;;;;-72
2023/03/07 20:08:59;;;;;;;;;;;;;;;0.71;89.99219;100097.9;;;;-71
2023/03/07 20:14:00;;;;;;;;;;;;;;;0.73;89.94238;100101.1;;;;-71
2023/03/07 20:19:01;;;;;;;;;;;;;;;0.74;89.76074;100104.7;;;;-71
2023/03/07 20:24:01;;;;;;;;;;;;;;;0.75;89.83789;100107.5;;;;-71
2023/03/07 20:28:59;;;;;;;;;;;;;;;0.8;89.89063;100095.9;;;;-72
2023/03/07 20:32:36;;;;;;;1.8;0.6;;;;;;;;;;;;;-71
2023/03/07 20:33:59;;;;;;;;;;;;;;;0.74;90.07324;100100.3;;;;-71
2023/03/07 20:39:00;;;;;;;;;;;;;;;0.7;89.78516;100103.8;;;;-71
2023/03/07 20:44:01;;;;;;;;;;;;;;;0.76;89.87207;100101;;;;-71
2023/03/07 20:49:01;;;;;;;;;;;;;;;0.69;89.7168;100102.3;;;;-70
2023/03/07 20:54:00;;;;;;;;;;;;;;;0.65;89.78418;100100.1;;;;-71
2023/03/07 20:59:02;;;;;;;;;;;;;;;0.63;89.78125;100104.1;;;;-71
2023/03/07 21:02:35;;;;;;;1.5;0.6;;;;;;;;;;;;;-72
2023/03/07 21:04:00;;;;;;;;;;;;;;;0.6;89.9043;100103.3;;;;-71
2023/03/07 21:09:00;;;;;;;;;;;;;;;0.57;90.23047;100102.6;;;;-72
2023/03/07 21:14:01;;;;;;;;;;;;;;;0.51;89.62695;100101.7;;;;-71
2023/03/07 21:18:59;;;;;;;;;;;;;;;0.48;89.80371;100106.9;;;;-72
2023/03/07 21:23:59;;;;;;;;;;;;;;;0.44;89.94531;100108.5;;;;-69
2023/03/07 21:29:01;;;;;;;;;;;;;;;0.43;90.05078;100111.9;;;;-72
2023/03/07 21:32:35;;;;;;;1.5;0.6;;;;;;;;;;;;;-70
2023/03/07 21:34:00;;;;;;;;;;;;;;;0.45;89.85254;100111.7;;;;-70
2023/03/07 21:38:59;;;;;;;;;;;;;;;0.4;89.42969;100117.8;;;;-71
2023/03/07 21:43:59;;;;;;;;;;;;;;;0.4;89.55859;100118.9;;;;-71
2023/03/07 21:49:00;;;;;;;;;;;;;;;0.38;89.73828;100118.8;;;;-71
2023/03/07 21:54:01;;;;;;;;;;;;;;;0.36;89.69141;100119.2;;;;-70
2023/03/07 21:59:01;;;;;;;;;;;;;;;0.32;89.71387;100123.7;;;;-71
2023/03/07 22:02:37;;;;;;;1.8;0.5;;;;;;;;;;;;;-71
2023/03/07 22:04:00;;;;;;;;;;;;;;;0.23;89.45996;100125.7;;;;-70
2023/03/07 22:09:03;;;;;;;;;;;;;;;0.16;89.70313;100128.1;;;;-71
2023/03/07 22:13:59;;;;;;;;;;;;;;;0.1;89.65723;100130.3;;;;-70
2023/03/07 22:19:00;;;;;;;;;;;;;;;0.06;89.57422;100134.4;;;;-70
2023/03/07 22:23:59;;;;;;;;;;;;;;;-0.02;89.80664;100131.5;;;;-70
2023/03/07 22:28:59;;;;;;;;;;;;;;;-0.08;89.62109;100132.8;;;;-70
2023/03/07 22:32:33;;;;;;;1;0.5;;;;;;;;;;;;;-71
2023/03/07 22:34:00;;;;;;;;;;;;;;;-0.08;89.9873;100140.4;;;;-70
2023/03/07 22:39:00;;;;;;;;;;;;;;;-0.1;89.85352;100141.7;;;;-71
2023/03/07 22:44:01;;;;;;;;;;;;;;;-0.14;89.9541;100141.6;;;;-72
2023/03/07 22:48:59;;;;;;;;;;;;;;;-0.14;89.98633;100136.6;;;;-70
2023/03/07 22:53:59;;;;;;;;;;;;;;;-0.19;89.6416;100140.3;;;;-71
2023/03/07 22:58:59;;;;;;;;;;;;;;;-0.2;89.91699;100147.4;;;;-71
2023/03/07 23:02:33;;;;;;;1.8;0.7;;;;;;;;;;;;;-71
2023/03/07 23:04:00;;;;;;;;;;;;;;;-0.29;89.74902;100147.4;;;;-71
2023/03/07 23:09:01;;;;;;;;;;;;;;;-0.3;89.53027;100143.1;;;;-71
2023/03/07 23:14:03;;;;;;;;;;;;;;;-0.33;89.68555;100143.5;;;;-71
2023/03/07 23:19:00;;;;;;;;;;;;;;;-0.36;89.58301;100139.9;;;;-71
2023/03/07 23:23:59;;;;;;;;;;;;;;;-0.33;89.38477;100140.9;;;;-70
2023/03/07 23:28:59;;;;;;;;;;;;;;;-0.31;89.38867;100139.7;;;;-70
2023/03/07 23:32:34;;;;;;;1.1;0.5;;;;;;;;;;;;;-71
2023/03/07 23:34:02;;;;;;;;;;;;;;;-0.31;89.33691;100136.7;;;;-71
2023/03/07 23:38:59;;;;;;;;;;;;;;;-0.27;89.29004;100135.3;;;;-70
2023/03/07 23:44:00;;;;;;;;;;;;;;;-0.29;89.29785;100133.3;;;;-70
2023/03/07 23:48:59;;;;;;;;;;;;;;;-0.29;89.41797;100125.5;;;;-70
2023/03/07 23:53:59;;;;;;;;;;;;;;;-0.33;89.19336;100138.7;;;;-71
2023/03/07 23:58:59;;;;;;;;;;;;;;;-0.33;89.59961;100142.5;;;;-71
